Olivenhain (182, 1250) Station Data

Red Flag Warning: No
Fire Weather Zone: 250
SDGE Region: North East
Lat/Lon: 33.08/-117.13

Observations

Time Wind Speed/Gust Temp(F) RH Fuel Moist Fuel Temp(F) Dewpt(F) Tmax(F) Tmin(F) Accum Precip 10-min Precip SL Press(mb)
2/27 11:40pm 221 13 G 17 49° 95% - - 48° 54.4° 44.7° - - -
2/27 11:20pm 227 11 G 18 49° 95% - - 48° 54.4° 44.7° - - -
2/27 11:10pm 227 10 G 16 50° 95% - - 49° 54.4° 44.7° - - -
2/27 11:00pm 221 10 G 16 51° 95% - - 49° 54.4° 44.7° - - -
2/27 10:50pm 214 7 G 11 51° 95% - - 49° 54.4° 44.7° - - -
2/27 10:40pm 208 6 G 9 51° 95% - - 49° 54.4° 44.7° - - -
2/27 10:30pm 216 8 G 11 50° 95% - - 49° 54.4° 44.7° - - -
2/27 10:20pm 224 8 G 12 51° 95% - - 49° 54.4° 44.7° - - -
2/27 10:10pm 217 9 G 13 51° 95% - - 49° 54.4° 44.7° - - -
2/27 10:00pm 226 8 G 12 51° 95% - - 49° 54.4° 44.7° - - -
2/27 9:50pm 240 5 G 10 51° 95% - - 49° 54.4° 44.7° - - -
2/27 9:40pm 261 3 G 11 51° 95% - - 49° 54.4° 44.7° - - -
2/27 9:30pm 255 2 G 6 51° 95% - - 50° 54.4° 44.7° - - -
2/27 9:20pm 245 4 G 7 51° 95% - - 50° 54.4° 44.7° - - -
2/27 9:10pm 222 9 G 17 52° 95% - - 50° 54.4° 44.7° - - -
2/27 9:00pm 217 9 G 13 52° 95% - - 50° 54.4° 44.7° - - -
2/27 8:50pm 205 10 G 14 52° 95% - - 50° 54.4° 44.7° - - -
2/27 8:40pm 209 12 G 17 52° 95% - - 50° 54.4° 44.7° - - -
2/27 8:30pm 216 11 G 17 52° 95% - - 50° 54.4° 44.7° - - -
2/27 8:20pm 220 8 G 11 52° 95% - - 50° 54.4° 44.7° - - -
2/27 8:10pm 220 10 G 15 52° 95% - - 51° 54.4° 44.7° - - -
2/27 8:00pm 224 10 G 19 52° 95% - - 51° 54.4° 44.7° - - -
2/27 7:50pm 207 21 G 32 53° 95% - - 51° 54.4° 44.7° - - -
2/27 7:40pm 203 19 G 31 53° 95% - - 51° 54.4° 44.7° - - -
2/27 7:30pm 204 18 G 27 53° 95% - - 51° 54.4° 44.7° - - -
2/27 7:20pm 191 18 G 25 53° 95% - - 51° 54.4° 44.7° - - -
2/27 7:10pm 187 16 G 26 53° 95% - - 51° 54.4° 44.7° - - -
2/27 7:00pm 193 20 G 29 52° 95% - - 51° 54.4° 44.7° - - -
2/27 6:50pm 197 21 G 30 52° 95% - - 51° 54.4° 44.7° - - -
2/27 6:40pm 205 21 G 29 52° 95% - - 51° 54.4° 44.7° - - -
2/27 6:30pm 199 22 G 29 53° 95% - - 51° 54.4° 44.7° - - -
2/27 6:20pm 200 21 G 28 53° 95% - - 51° 54.4° 44.7° - - -
2/27 6:10pm 193 24 G 33 53° 95% - - 52° 54.4° 44.7° - - -
2/27 6:00pm 192 23 G 34 53° 95% - - 52° 54.4° 44.7° - - -
2/27 5:50pm 201 21 G 34 53° 95% - - 52° 54.4° 44.7° - - -
2/27 5:40pm 195 26 G 37 53° 95% - - 51° 54.4° 44.7° - - -
2/27 5:30pm 196 25 G 35 53° 95% - - 52° 54.4° 44.7° - - -
2/27 5:20pm 198 25 G 38 53° 95% - - 51° 54.4° 44.7° - - -
2/27 5:10pm 206 26 G 38 53° 95% - - 51° 54.4° 44.7° - - -
2/27 5:00pm 204 23 G 33 53° 95% - - 52° 54.4° 44.7° - - -
2/27 4:50pm 189 27 G 37 53° 95% - - 52° 54.4° 44.7° - - -
2/27 4:40pm 190 23 G 34 53° 95% - - 52° 54.4° 44.7° - - -
2/27 4:30pm 189 18 G 24 53° 95% - - 52° 54.4° 44.7° - - -
2/27 4:20pm 192 21 G 31 53° 95% - - 52° 54.4° 44.7° - - -
2/27 4:10pm 191 23 G 33 53° 95% - - 52° 54.4° 44.7° - - -
2/27 4:00pm 196 22 G 30 53° 95% - - 52° 54.4° 44.7° - - -
2/27 3:50pm 195 26 G 37 53° 95% - - 52° 54.4° 44.7° - - -
2/27 3:40pm 195 25 G 38 53° 95% - - 52° 54.4° 44.7° - - -
2/27 3:30pm 197 21 G 30 53° 95% - - 52° 54.4° 44.7° - - -
2/27 3:20pm 193 23 G 29 53° 95% - - 52° 54.4° 44.7° - - -
2/27 3:10pm 187 23 G 29 53° 95% - - 52° 54.4° 44.7° - - -
2/27 3:00pm 187 25 G 40 53° 95% - - 52° 54.4° 44.7° - - -
2/27 2:50pm 184 24 G 34 53° 95% - - 52° 54.4° 44.7° - - -
2/27 2:40pm 186 28 G 36 53° 95% - - 52° 54.4° 44.7° - - -
2/27 2:30pm 183 32 G 45 53° 95% - - 52° 54.4° 44.7° - - -
2/27 2:20pm 183 33 G 45 53° 95% - - 52° 54.4° 44.7° - - -
2/27 2:10pm 191 29 G 43 53° 95% - - 52° 54.4° 44.7° - - -
2/27 2:00pm 188 26 G 37 53° 95% - - 52° 54.4° 44.7° - - -
2/27 1:50pm 188 26 G 36 53° 95% - - 52° 54.4° 44.7° - - -
2/27 1:40pm 193 28 G 45 53° 95% - - 52° 54.4° 44.7° - - -
2/27 1:30pm 191 26 G 43 53° 95% - - 52° 54.4° 44.7° - - -
2/27 1:20pm 205 24 G 35 53° 95% - - 52° 54.4° 44.7° - - -
2/27 1:10pm 198 21 G 33 53° 95% - - 52° 54.4° 44.7° - - -
2/27 1:00pm 192 24 G 35 53° 95% - - 52° 54.4° 44.7° - - -
2/27 12:40pm 200 20 G 29 54° 95% - - 52° 54.4° 44.7° - - -
2/27 12:30pm 195 19 G 27 53° 95% - - 52° 54.4° 44.7° - - -
2/27 12:20pm 191 21 G 31 53° 95% - - 52° 54.4° 44.7° - - -
2/27 12:10pm 183 23 G 32 53° 95% - - 52° 54.4° 44.7° - - -
2/27 12:00pm 187 22 G 33 53° 95% - - 52° 54.4° 44.7° - - -
2/27 11:50am 195 19 G 26 53° 95% - - 51° 54.4° 44.7° - - -
2/27 11:40am 187 21 G 29 52° 95% - - 51° 54.4° 44.7° - - -
2/27 11:30am 185 24 G 34 52° 95% - - 51° 54.4° 44.7° - - -
2/27 11:20am 179 22 G 34 53° 95% - - 51° 54.4° 44.7° - - -
2/27 11:10am 181 20 G 28 53° 95% - - 51° 54.4° 44.7° - - -
2/27 11:00am 179 23 G 29 53° 95% - - 51° 54.4° 44.7° - - -
2/27 10:50am 184 22 G 29 53° 95% - - 51° 54.4° 44.7° - - -
2/27 10:40am 181 21 G 28 53° 95% - - 52° 54.4° 44.7° - - -
2/27 10:30am 190 23 G 31 53° 95% - - 52° 54.4° 44.7° - - -
2/27 10:20am 192 23 G 30 53° 95% - - 52° 54.4° 44.7° - - -
2/27 10:10am 191 23 G 34 54° 95% - - 52° 54.4° 44.7° - - -
2/27 10:00am 188 24 G 34 53° 95% - - 52° 54.4° 44.7° - - -
2/27 9:50am 187 22 G 34 53° 95% - - 52° 54.4° 44.7° - - -
2/27 9:40am 187 19 G 32 53° 95% - - 52° 54.4° 44.7° - - -
2/27 9:30am 192 21 G 30 53° 95% - - 52° 54.4° 44.7° - - -
2/27 9:20am 193 20 G 27 54° 95% - - 52° 54.4° 44.7° - - -
2/27 9:10am 193 18 G 28 54° 95% - - 52° 54.4° 44.7° - - -
2/27 9:00am 187 16 G 21 54° 95% - - 52° 54.4° 44.7° - - -
2/27 8:50am 183 18 G 25 54° 95% - - 52° 54.4° 44.7° - - -
2/27 8:40am 184 19 G 26 54° 95% - - 52° 54.4° 44.7° - - -
2/27 8:30am 184 17 G 23 54° 95% - - 52° 54.4° 44.7° - - -
2/27 8:20am 183 16 G 21 54° 95% - - 52° 54.4° 44.7° - - -
2/27 8:10am 190 18 G 28 54° 95% - - 52° 54.4° 44.7° - - -
2/27 8:00am 189 19 G 26 54° 95% - - 52° 54.4° 44.7° - - -
2/27 7:50am 191 19 G 25 54° 95% - - 52° 54.4° 44.7° - - -
2/27 7:40am 192 21 G 28 54° 95% - - 52° 54.4° 44.7° - - -
2/27 7:30am 192 17 G 24 54° 95% - - 52° 54.4° 44.7° - - -
2/27 7:20am 193 19 G 29 54° 95% - - 52° 54.4° 44.7° - - -
2/27 7:10am 190 20 G 27 54° 95% - - 52° 54.4° 44.7° - - -
2/27 7:00am 192 22 G 31 54° 95% - - 52° 54.4° 44.7° - - -
2/27 6:50am 191 19 G 29 54° 95% - - 52° 54.3° 44.7° - - -
2/27 6:40am 188 18 G 26 54° 95% - - 52° 54.2° 44.7° - - -
2/27 6:30am 185 19 G 27 54° 95% - - 52° 54.2° 44.7° - - -
2/27 6:20am 184 17 G 24 53° 95% - - 52° 53.9° 44.7° - - -
2/27 6:10am 181 16 G 23 53° 95% - - 51° 53.6° 44.7° - - -
2/27 6:00am 174 14 G 22 53° 95% - - 51° 53° 44.7° - - -
2/27 5:50am 175 12 G 18 52° 95% - - 51° 52.9° 44.7° - - -
2/27 5:40am 176 12 G 20 52° 95% - - 50° 52.8° 44.7° - - -
2/27 5:30am 167 8 G 13 51° 95% - - 49° 51.5° 44.7° - - -
2/27 5:20am 158 9 G 14 50° 95% - - 49° 50.9° 44.7° - - -
2/27 5:10am 153 9 G 14 50° 95% - - 48° 50.5° 44.7° - - -
2/27 5:00am 154 7 G 12 50° 95% - - 48° 50.3° 44.7° - - -
2/27 4:50am 128 3 G 8 49° 95% - - 47° 49.5° 44.7° - - -
2/27 4:40am 36 4 G 5 47° 95% - - 46° 48.1° 44.7° - - -
2/27 4:30am 35 4 G 6 47° 95% - - 46° 47.6° 44.7° - - -
2/27 4:20am 39 7 G 10 47° 95% - - 45° 47.6° 44.7° - - -
2/27 4:10am 28 7 G 10 47° 95% - - 45° 47.2° 44.7° - - -
2/27 4:00am 21 7 G 8 46° 94% - - 45° 47° 44.7° - - -
2/27 3:50am 22 6 G 8 46° 94% - - 45° 46.8° 44.7° - - -
2/27 3:40am 30 6 G 8 46° 94% - - 45° 46.8° 44.7° - - -
2/27 3:30am 33 6 G 10 46° 94% - - 45° 46.8° 44.7° - - -
2/27 3:20am 39 6 G 9 46° 94% - - 45° 46.8° 44.7° - - -
2/27 3:10am 31 6 G 9 46° 94% - - 45° 46.8° 44.7° - - -
2/27 3:00am 41 8 G 10 46° 94% - - 45° 46.8° 44.7° - - -
2/27 2:50am 38 7 G 10 46° 94% - - 44° 46.8° 44.7° - - -
2/27 2:40am 37 8 G 10 46° 94% - - 44° 46.8° 44.7° - - -
2/27 2:30am 40 9 G 12 46° 93% - - 44° 46.8° 44.7° - - -
2/27 2:20am 34 8 G 12 45° 93% - - 44° 46.8° 44.7° - - -
2/27 2:10am 34 8 G 11 45° 93% - - 43° 46.8° 44.7° - - -
2/27 2:00am 23 8 G 11 45° 92% - - 43° 46.8° 44.7° - - -
2/27 1:50am 28 8 G 12 45° 92% - - 43° 46.8° 44.7° - - -
2/27 1:40am 32 8 G 12 45° 93% - - 43° 46.8° 44.7° - - -
2/27 1:30am 41 9 G 11 45° 92% - - 43° 46.8° 44.7° - - -
2/27 1:20am 40 9 G 12 45° 92% - - 43° 46.8° 44.8° - - -
2/27 1:10am 43 8 G 12 45° 90% - - 43° 46.8° 44.8° - - -
2/27 1:00am 44 10 G 13 45° 87% - - 42° 46.8° 44.9° - - -
2/27 12:50am 44 9 G 13 46° 84% - - 41° 46.8° 45° - - -
2/27 12:40am 40 7 G 9 45° 82% - - 40° 46.8° 45° - - -
2/27 12:30am 41 6 G 9 46° 80% - - 40° 46.8° 45.2° - - -
2/27 12:20am 46 5 G 9 46° 80% - - 40° 46.8° 45.4° - - -
2/27 12:10am 42 4 G 9 46° 80% - - 40° 46.6° 45.4° - - -
2/27 12:00am 48 6 G 8 46° 80% - - 40° 53.5° 45.2° - - -
2/26 11:50pm 41 5 G 8 46° 81% - - 40° 53.5° 45.2° - - -
2/26 11:40pm 37 5 G 6 46° 81% - - 40° 53.5° 45.2° - - -
2/26 11:30pm 37 3 G 5 46° 80% - - 40° 53.5° 45.2° - - -
2/26 11:20pm 60 3 G 4 46° 79% - - 40° 53.5° 45.6° - - -
2/26 11:10pm 61 4 G 5 47° 78% - - 40° 53.5° 45.6° - - -
2/26 11:00pm 66 3 G 4 47° 79% - - 40° 53.5° 45.6° - - -
2/26 10:50pm 83 2 G 5 47° 79% - - 41° 53.5° 45.6° - - -
2/26 10:40pm 105 4 G 6 47° 78% - - 41° 53.5° 45.6° - - -
2/26 10:30pm 107 5 G 6 47° 78% - - 41° 53.5° 45.6° - - -
2/26 10:20pm 99 5 G 5 47° 79% - - 41° 53.5° 45.6° - - -
2/26 10:10pm 114 4 G 5 48° 75% - - 40° 53.5° 45.6° - - -
2/26 10:00pm 140 3 G 4 48° 72% - - 40° 53.5° 45.6° - - -
2/26 9:50pm 151 5 G 7 48° 72% - - 40° 53.5° 45.6° - - -
2/26 9:40pm 173 5 G 7 48° 73% - - 40° 53.5° 45.6° - - -
2/26 9:30pm 180 4 G 6 48° 73% - - 40° 53.5° 45.6° - - -
2/26 9:20pm 177 5 G 7 48° 73% - - 40° 53.5° 45.6° - - -
2/26 9:10pm 174 7 G 8 49° 72% - - 40° 53.5° 45.6° - - -
2/26 9:00pm 173 7 G 9 49° 73% - - 40° 53.5° 45.6° - - -
2/26 8:50pm 176 7 G 9 48° 75% - - 41° 53.5° 45.6° - - -
2/26 8:40pm 176 7 G 9 49° 76% - - 41° 53.5° 45.6° - - -
2/26 8:30pm 191 7 G 10 49° 75% - - 41° 53.5° 45.6° - - -
2/26 8:20pm 186 8 G 10 49° 75% - - 41° 53.5° 45.6° - - -
2/26 8:10pm 181 8 G 11 49° 76% - - 42° 53.5° 45.6° - - -
2/26 8:00pm 188 8 G 11 49° 75% - - 41° 53.5° 45.6° - - -
2/26 7:50pm 192 7 G 9 49° 76% - - 42° 53.5° 45.6° - - -
2/26 7:40pm 193 6 G 9 49° 76% - - 42° 53.5° 45.6° - - -
2/26 7:30pm 193 8 G 11 49° 77% - - 42° 53.5° 45.6° - - -
2/26 7:20pm 192 9 G 11 49° 77% - - 42° 53.5° 45.6° - - -
2/26 7:10pm 189 7 G 10 49° 78% - - 42° 53.5° 45.6° - - -
2/26 7:00pm 201 5 G 9 48° 80% - - 42° 53.5° 45.6° - - -
2/26 6:50pm 208 6 G 10 48° 79% - - 42° 53.5° 45.6° - - -
2/26 6:40pm 201 8 G 11 49° 79% - - 42° 53.5° 45.6° - - -
2/26 6:30pm 212 9 G 12 49° 78% - - 42° 53.5° 45.6° - - -
2/26 6:20pm 204 9 G 13 49° 79% - - 42° 53.5° 45.6° - - -
2/26 6:10pm 204 8 G 12 49° 79% - - 42° 53.5° 45.6° - - -
2/26 6:00pm 213 9 G 12 49° 78% - - 42° 53.5° 45.6° - - -
2/26 5:50pm 211 11 G 14 49° 78% - - 42° 53.5° 45.6° - - -
2/26 5:40pm 209 12 G 17 49° 76% - - 42° 53.5° 45.6° - - -
2/26 5:30pm 212 14 G 17 49° 75% - - 42° 53.5° 45.6° - - -
2/26 5:20pm 212 15 G 19 50° 74% - - 42° 53.5° 45.6° - - -
2/26 5:10pm 214 16 G 21 51° 73% - - 42° 53.5° 45.6° - - -
2/26 5:00pm 215 15 G 21 51° 76% - - 43° 53.5° 45.6° - - -
2/26 4:50pm 214 14 G 18 50° 79% - - 44° 53.5° 45.6° - - -